KOSUKDLZ

Guest
Details From KOSU - OHIO STATE UNIVERSITY
To KDLZ - DELAWARE MUNI
Flight Number -
Tags generated
Created
Modified
Stats Distance 14 nm / 25 km
Max Altitude 1,200 ft / 366 m
Waypoints 3
Social Downloads 1
Likes 0
Share VATSIM

Download

Looking for another format? Having issues loading an existing format? Contact us
Advertisement - Login to hide

Notes

Basic altitude profile: - Ascent Rate: 2500ft/min - Ascent Speed: 250kts - Cruise Altitude: 35000ft - Cruise Speed: 420kts - Descent Rate: 1500ft/min - Descent Speed: 250kts Options: - Use NATs: no - Use PACOTS: no - Use low airways: yes - Use high airways: no

Route

KOSU DIPNE KDLZ

ID Type Via Altitude Latitude Longitude Leg Dist Tot Dist Heading (true) Name
O KOSU APT - 0 ft / 0 m 40.08021˚ -83.07298˚ - 0 nm - OHIO STATE UNIVERSITY
DIPNE FIX - 1,200 ft / 366 m 40.11329˚ -83.13669˚ 3 nm 3 nm 304° / 304° -
O KDLZ APT - 0 ft / 0 m 40.27970˚ -83.11480˚ 10 nm 13 nm 6° / 6° DELAWARE MUNI

Altitude Profile

Advertisement - Login to hide

KOSU

Details ICAO KOSU (OSU)
Name OHIO STATE UNIVERSITY
Region United States
Timezone America/New_York (UTC-5.0)
Stats Elevation 905 ft / 276 m (AMSL)
Location 40.080211° -83.072979°
Runways 4
Magnetic Variation 7.081° W

METAR

KOSU 160253Z 24011KT 10SM OVC047 M02/M06 A3004 RMK AO2 SLP185 T10171061 51014

Decode

TAF

Not found

Departure Runways

ID Width Length Bearing (true) Bearing (mag) Surface Threshold Offset Overrun Length
05 98 ft / 30 m 3,553 ft / 1,083 m 48.62° 55.70° Asphalt 0 ft / 0 m 0 ft / 0 m
09L 98 ft / 30 m 2,987 ft / 910 m 87.08° 94.16° Asphalt 0 ft / 0 m 0 ft / 0 m
09R 98 ft / 30 m 4,993 ft / 1,522 m 87.06° 94.14° Asphalt 200 ft / 61 m 0 ft / 0 m
14 98 ft / 30 m 3,437 ft / 1,048 m 136.34° 143.42° Asphalt 0 ft / 0 m 0 ft / 0 m
23 98 ft / 30 m 3,553 ft / 1,083 m 228.62° 235.70° Asphalt 0 ft / 0 m 0 ft / 0 m
27L 98 ft / 30 m 4,993 ft / 1,522 m 267.07° 274.15° Asphalt 200 ft / 61 m 0 ft / 0 m
27R 98 ft / 30 m 2,987 ft / 910 m 267.08° 274.16° Asphalt 0 ft / 0 m 0 ft / 0 m
32 98 ft / 30 m 3,437 ft / 1,048 m 316.35° 323.43° Asphalt 0 ft / 0 m 0 ft / 0 m

KDLZ

Details ICAO KDLZ
Name DELAWARE MUNI
Region United States
Timezone America/New_York (UTC-5.0)
Stats Elevation 945 ft / 288 m (AMSL)
Location 40.279702° -83.114801°
Runways 1
Magnetic Variation 7.088° W

METAR

KDLZ 160335Z AUTO 00000KT 10SM OVC049 M01/M06 A3005 RMK AO2

Decode

TAF

Not found

Destination Runways

ID Width Length Bearing (true) Bearing (mag) Surface Threshold Offset Overrun Length
10 100 ft / 30 m 4,989 ft / 1,521 m 98.37° 105.46° Asphalt 0 ft / 0 m 0 ft / 0 m
28 100 ft / 30 m 4,989 ft / 1,521 m 278.38° 285.47° Asphalt 0 ft / 0 m 0 ft / 0 m